sensor_id;sensor_type;location;lat;lon;timestamp;P1;durP1;ratioP1;P2;durP2;ratioP2
17382;SDS011;8809;51.892;8.384;2023-02-12T00:01:45;48.53;;;27.48;;
17382;SDS011;8809;51.892;8.384;2023-02-12T00:04:12;49.03;;;28.13;;
17382;SDS011;8809;51.892;8.384;2023-02-12T00:06:40;43.70;;;25.67;;
17382;SDS011;8809;51.892;8.384;2023-02-12T00:09:07;47.78;;;27.00;;
17382;SDS011;8809;51.892;8.384;2023-02-12T00:11:34;44.10;;;25.02;;
17382;SDS011;8809;51.892;8.384;2023-02-12T00:14:02;50.63;;;27.45;;
17382;SDS011;8809;51.892;8.384;2023-02-12T00:16:30;41.85;;;23.75;;
17382;SDS011;8809;51.892;8.384;2023-02-12T00:19:00;37.30;;;23.17;;
17382;SDS011;8809;51.892;8.384;2023-02-12T00:21:27;39.85;;;22.80;;
17382;SDS011;8809;51.892;8.384;2023-02-12T00:23:54;45.03;;;25.23;;
17382;SDS011;8809;51.892;8.384;2023-02-12T00:26:21;33.42;;;20.23;;
17382;SDS011;8809;51.892;8.384;2023-02-12T00:28:51;32.88;;;20.33;;
17382;SDS011;8809;51.892;8.384;2023-02-12T00:31:21;42.50;;;25.05;;
17382;SDS011;8809;51.892;8.384;2023-02-12T00:33:51;39.50;;;22.05;;
17382;SDS011;8809;51.892;8.384;2023-02-12T00:36:21;37.88;;;22.60;;
17382;SDS011;8809;51.892;8.384;2023-02-12T00:38:50;32.75;;;20.30;;
17382;SDS011;8809;51.892;8.384;2023-02-12T00:41:29;36.97;;;22.73;;
17382;SDS011;8809;51.892;8.384;2023-02-12T00:43:56;41.42;;;23.73;;
17382;SDS011;8809;51.892;8.384;2023-02-12T00:46:29;35.75;;;22.20;;
17382;SDS011;8809;51.892;8.384;2023-02-12T00:48:55;31.48;;;20.35;;
17382;SDS011;8809;51.892;8.384;2023-02-12T00:51:22;33.25;;;20.23;;
17382;SDS011;8809;51.892;8.384;2023-02-12T00:53:49;39.30;;;22.50;;
17382;SDS011;8809;51.892;8.384;2023-02-12T00:56:20;38.83;;;21.95;;
17382;SDS011;8809;51.892;8.384;2023-02-12T00:58:47;34.83;;;20.55;;
17382;SDS011;8809;51.892;8.384;2023-02-12T01:09:14;30.92;;;18.77;;
17382;SDS011;8809;51.892;8.384;2023-02-12T01:11:52;31.77;;;18.10;;
17382;SDS011;8809;51.892;8.384;2023-02-12T01:14:19;39.50;;;23.13;;
17382;SDS011;8809;51.892;8.384;2023-02-12T01:16:49;39.05;;;23.63;;
17382;SDS011;8809;51.892;8.384;2023-02-12T01:19:15;47.10;;;25.83;;
17382;SDS011;8809;51.892;8.384;2023-02-12T01:21:48;38.17;;;21.10;;
17382;SDS011;8809;51.892;8.384;2023-02-12T01:28:00;49.65;;;26.77;;
17382;SDS011;8809;51.892;8.384;2023-02-12T01:30:28;41.17;;;24.33;;
17382;SDS011;8809;51.892;8.384;2023-02-12T01:32:55;39.92;;;23.60;;
17382;SDS011;8809;51.892;8.384;2023-02-12T01:35:38;38.85;;;22.33;;
17382;SDS011;8809;51.892;8.384;2023-02-12T01:39:02;44.05;;;23.80;;
17382;SDS011;8809;51.892;8.384;2023-02-12T01:41:41;41.60;;;23.20;;
17382;SDS011;8809;51.892;8.384;2023-02-12T01:44:16;48.60;;;26.63;;
17382;SDS011;8809;51.892;8.384;2023-02-12T01:46:45;38.40;;;22.55;;
17382;SDS011;8809;51.892;8.384;2023-02-12T01:49:14;36.97;;;22.10;;
17382;SDS011;8809;51.892;8.384;2023-02-12T01:51:43;47.40;;;28.05;;
17382;SDS011;8809;51.892;8.384;2023-02-12T01:54:13;50.95;;;28.23;;
17382;SDS011;8809;51.892;8.384;2023-02-12T01:56:42;50.65;;;26.35;;
17382;SDS011;8809;51.892;8.384;2023-02-12T01:59:10;46.15;;;27.30;;
17382;SDS011;8809;51.892;8.384;2023-02-12T02:01:41;47.25;;;27.65;;
17382;SDS011;8809;51.892;8.384;2023-02-12T02:04:09;44.00;;;26.88;;
17382;SDS011;8809;51.892;8.384;2023-02-12T02:06:39;49.67;;;26.23;;
17382;SDS011;8809;51.892;8.384;2023-02-12T02:09:10;53.53;;;29.67;;
17382;SDS011;8809;51.892;8.384;2023-02-12T02:11:55;40.47;;;23.48;;
17382;SDS011;8809;51.892;8.384;2023-02-12T02:18:25;51.72;;;27.42;;
17382;SDS011;8809;51.892;8.384;2023-02-12T02:21:12;37.15;;;22.55;;
17382;SDS011;8809;51.892;8.384;2023-02-12T02:27:06;42.88;;;24.13;;
17382;SDS011;8809;51.892;8.384;2023-02-12T02:29:46;41.45;;;23.00;;
17382;SDS011;8809;51.892;8.384;2023-02-12T02:32:45;38.13;;;20.85;;
17382;SDS011;8809;51.892;8.384;2023-02-12T02:35:21;30.33;;;18.17;;
17382;SDS011;8809;51.892;8.384;2023-02-12T02:37:56;28.27;;;15.85;;
17382;SDS011;8809;51.892;8.384;2023-02-12T02:40:36;26.55;;;15.60;;
17382;SDS011;8809;51.892;8.384;2023-02-12T02:43:14;22.83;;;13.95;;
17382;SDS011;8809;51.892;8.384;2023-02-12T02:45:44;34.47;;;18.65;;
17382;SDS011;8809;51.892;8.384;2023-02-12T02:48:16;26.15;;;15.65;;
17382;SDS011;8809;51.892;8.384;2023-02-12T02:50:46;35.75;;;21.00;;
17382;SDS011;8809;51.892;8.384;2023-02-12T02:53:18;37.17;;;21.27;;
17382;SDS011;8809;51.892;8.384;2023-02-12T02:55:56;31.27;;;18.42;;
17382;SDS011;8809;51.892;8.384;2023-02-12T02:58:25;38.03;;;21.00;;
17382;SDS011;8809;51.892;8.384;2023-02-12T03:01:01;37.88;;;22.25;;
17382;SDS011;8809;51.892;8.384;2023-02-12T03:03:33;36.90;;;21.88;;
17382;SDS011;8809;51.892;8.384;2023-02-12T03:06:05;38.63;;;21.98;;
17382;SDS011;8809;51.892;8.384;2023-02-12T03:08:36;36.72;;;21.48;;
17382;SDS011;8809;51.892;8.384;2023-02-12T03:11:09;41.05;;;23.83;;
17382;SDS011;8809;51.892;8.384;2023-02-12T03:13:41;39.85;;;23.48;;
17382;SDS011;8809;51.892;8.384;2023-02-12T03:16:13;48.53;;;26.73;;
17382;SDS011;8809;51.892;8.384;2023-02-12T03:18:49;45.95;;;26.13;;
17382;SDS011;8809;51.892;8.384;2023-02-12T03:21:21;48.05;;;26.95;;
17382;SDS011;8809;51.892;8.384;2023-02-12T03:24:24;49.00;;;27.05;;
17382;SDS011;8809;51.892;8.384;2023-02-12T03:26:57;45.92;;;24.65;;
17382;SDS011;8809;51.892;8.384;2023-02-12T03:29:28;41.60;;;23.77;;
17382;SDS011;8809;51.892;8.384;2023-02-12T03:31:57;44.65;;;24.40;;
17382;SDS011;8809;51.892;8.384;2023-02-12T03:34:42;38.05;;;21.38;;
17382;SDS011;8809;51.892;8.384;2023-02-12T03:37:17;35.83;;;20.35;;
17382;SDS011;8809;51.892;8.384;2023-02-12T03:39:53;34.55;;;20.02;;
17382;SDS011;8809;51.892;8.384;2023-02-12T03:42:26;35.28;;;20.80;;
17382;SDS011;8809;51.892;8.384;2023-02-12T03:45:00;35.70;;;21.13;;
17382;SDS011;8809;51.892;8.384;2023-02-12T03:47:36;33.42;;;18.65;;
17382;SDS011;8809;51.892;8.384;2023-02-12T03:50:16;31.40;;;18.55;;
17382;SDS011;8809;51.892;8.384;2023-02-12T03:52:47;48.70;;;27.50;;
17382;SDS011;8809;51.892;8.384;2023-02-12T03:55:31;43.28;;;24.75;;
17382;SDS011;8809;51.892;8.384;2023-02-12T03:58:05;49.17;;;28.13;;
17382;SDS011;8809;51.892;8.384;2023-02-12T04:00:43;47.13;;;26.52;;
17382;SDS011;8809;51.892;8.384;2023-02-12T04:03:10;52.05;;;30.40;;
17382;SDS011;8809;51.892;8.384;2023-02-12T04:05:38;42.10;;;24.25;;
17382;SDS011;8809;51.892;8.384;2023-02-12T04:08:07;54.20;;;28.35;;
17382;SDS011;8809;51.892;8.384;2023-02-12T04:10:37;55.75;;;30.55;;
17382;SDS011;8809;51.892;8.384;2023-02-12T04:13:15;51.28;;;28.40;;
17382;SDS011;8809;51.892;8.384;2023-02-12T04:15:50;51.67;;;28.60;;
17382;SDS011;8809;51.892;8.384;2023-02-12T04:18:30;51.90;;;26.95;;
17382;SDS011;8809;51.892;8.384;2023-02-12T04:21:05;58.00;;;30.58;;
17382;SDS011;8809;51.892;8.384;2023-02-12T04:23:43;50.90;;;27.95;;
17382;SDS011;8809;51.892;8.384;2023-02-12T04:26:22;46.95;;;26.13;;
17382;SDS011;8809;51.892;8.384;2023-02-12T04:29:07;43.33;;;24.42;;
17382;SDS011;8809;51.892;8.384;2023-02-12T04:31:45;48.15;;;26.73;;
17382;SDS011;8809;51.892;8.384;2023-02-12T04:34:25;41.65;;;24.50;;
17382;SDS011;8809;51.892;8.384;2023-02-12T04:37:01;43.40;;;23.67;;
17382;SDS011;8809;51.892;8.384;2023-02-12T04:39:31;49.15;;;25.33;;
17382;SDS011;8809;51.892;8.384;2023-02-12T04:42:03;51.30;;;29.02;;
17382;SDS011;8809;51.892;8.384;2023-02-12T04:44:31;44.55;;;26.83;;
17382;SDS011;8809;51.892;8.384;2023-02-12T04:46:59;54.65;;;30.33;;
17382;SDS011;8809;51.892;8.384;2023-02-12T04:49:27;49.05;;;29.35;;
17382;SDS011;8809;51.892;8.384;2023-02-12T04:51:54;48.88;;;27.33;;
17382;SDS011;8809;51.892;8.384;2023-02-12T04:57:33;38.72;;;21.85;;
17382;SDS011;8809;51.892;8.384;2023-02-12T05:00:00;31.27;;;19.55;;
17382;SDS011;8809;51.892;8.384;2023-02-12T05:02:34;30.17;;;17.42;;
17382;SDS011;8809;51.892;8.384;2023-02-12T05:05:03;31.60;;;18.27;;
17382;SDS011;8809;51.892;8.384;2023-02-12T05:07:33;39.25;;;22.45;;
17382;SDS011;8809;51.892;8.384;2023-02-12T05:10:00;32.70;;;18.98;;
17382;SDS011;8809;51.892;8.384;2023-02-12T05:12:31;35.03;;;19.48;;
17382;SDS011;8809;51.892;8.384;2023-02-12T05:14:59;51.83;;;27.42;;
17382;SDS011;8809;51.892;8.384;2023-02-12T05:17:35;49.92;;;28.17;;
17382;SDS011;8809;51.892;8.384;2023-02-12T05:20:07;39.65;;;23.83;;
17382;SDS011;8809;51.892;8.384;2023-02-12T05:22:44;37.83;;;21.33;;
17382;SDS011;8809;51.892;8.384;2023-02-12T05:25:11;33.15;;;18.30;;
17382;SDS011;8809;51.892;8.384;2023-02-12T05:27:38;32.03;;;18.88;;
17382;SDS011;8809;51.892;8.384;2023-02-12T05:30:07;28.98;;;17.30;;
17382;SDS011;8809;51.892;8.384;2023-02-12T05:32:34;25.48;;;15.38;;
17382;SDS011;8809;51.892;8.384;2023-02-12T05:35:01;24.23;;;14.77;;
17382;SDS011;8809;51.892;8.384;2023-02-12T05:37:29;27.98;;;15.40;;
17382;SDS011;8809;51.892;8.384;2023-02-12T05:39:55;25.42;;;15.32;;
17382;SDS011;8809;51.892;8.384;2023-02-12T05:42:22;29.30;;;17.55;;
17382;SDS011;8809;51.892;8.384;2023-02-12T05:44:49;45.42;;;26.73;;
17382;SDS011;8809;51.892;8.384;2023-02-12T05:47:17;43.58;;;24.27;;
17382;SDS011;8809;51.892;8.384;2023-02-12T05:49:44;42.58;;;24.70;;
17382;SDS011;8809;51.892;8.384;2023-02-12T05:52:11;47.53;;;26.17;;
17382;SDS011;8809;51.892;8.384;2023-02-12T05:54:38;40.97;;;23.77;;
17382;SDS011;8809;51.892;8.384;2023-02-12T05:57:05;49.88;;;29.05;;
17382;SDS011;8809;51.892;8.384;2023-02-12T05:59:32;46.63;;;26.85;;
17382;SDS011;8809;51.892;8.384;2023-02-12T06:01:59;44.25;;;25.27;;
17382;SDS011;8809;51.892;8.384;2023-02-12T06:04:27;43.53;;;24.70;;
17382;SDS011;8809;51.892;8.384;2023-02-12T06:06:54;54.25;;;30.23;;
17382;SDS011;8809;51.892;8.384;2023-02-12T06:09:22;46.60;;;25.80;;
17382;SDS011;8809;51.892;8.384;2023-02-12T06:11:49;44.92;;;25.23;;
17382;SDS011;8809;51.892;8.384;2023-02-12T06:18:03;33.22;;;19.52;;
17382;SDS011;8809;51.892;8.384;2023-02-12T06:20:46;32.20;;;18.92;;
17382;SDS011;8809;51.892;8.384;2023-02-12T06:23:13;29.08;;;18.08;;
17382;SDS011;8809;51.892;8.384;2023-02-12T06:25:40;38.80;;;21.85;;
17382;SDS011;8809;51.892;8.384;2023-02-12T06:28:07;36.40;;;21.23;;
17382;SDS011;8809;51.892;8.384;2023-02-12T06:30:34;44.05;;;23.42;;
17382;SDS011;8809;51.892;8.384;2023-02-12T06:33:01;48.53;;;28.02;;
17382;SDS011;8809;51.892;8.384;2023-02-12T06:35:29;53.60;;;28.95;;
17382;SDS011;8809;51.892;8.384;2023-02-12T06:37:59;43.30;;;24.52;;
17382;SDS011;8809;51.892;8.384;2023-02-12T06:40:32;50.50;;;27.63;;
17382;SDS011;8809;51.892;8.384;2023-02-12T06:43:01;45.85;;;25.55;;
17382;SDS011;8809;51.892;8.384;2023-02-12T06:45:28;49.95;;;29.30;;
17382;SDS011;8809;51.892;8.384;2023-02-12T06:48:06;58.80;;;31.13;;
17382;SDS011;8809;51.892;8.384;2023-02-12T06:50:33;68.05;;;35.75;;
17382;SDS011;8809;51.892;8.384;2023-02-12T06:53:01;55.55;;;30.67;;
17382;SDS011;8809;51.892;8.384;2023-02-12T06:55:28;57.42;;;30.23;;
17382;SDS011;8809;51.892;8.384;2023-02-12T06:57:58;70.72;;;35.90;;
17382;SDS011;8809;51.892;8.384;2023-02-12T07:00:25;52.65;;;30.23;;
17382;SDS011;8809;51.892;8.384;2023-02-12T07:02:52;63.75;;;32.63;;
17382;SDS011;8809;51.892;8.384;2023-02-12T07:05:20;60.50;;;30.70;;
17382;SDS011;8809;51.892;8.384;2023-02-12T07:07:47;60.92;;;32.47;;
17382;SDS011;8809;51.892;8.384;2023-02-12T07:10:16;68.82;;;34.22;;
17382;SDS011;8809;51.892;8.384;2023-02-12T07:12:43;55.75;;;30.10;;
17382;SDS011;8809;51.892;8.384;2023-02-12T07:15:11;60.15;;;32.08;;
17382;SDS011;8809;51.892;8.384;2023-02-12T07:17:41;59.80;;;28.83;;
17382;SDS011;8809;51.892;8.384;2023-02-12T07:20:08;48.83;;;26.85;;
17382;SDS011;8809;51.892;8.384;2023-02-12T07:22:35;70.18;;;35.30;;
17382;SDS011;8809;51.892;8.384;2023-02-12T07:25:03;67.47;;;35.75;;
17382;SDS011;8809;51.892;8.384;2023-02-12T07:27:33;67.55;;;33.58;;
17382;SDS011;8809;51.892;8.384;2023-02-12T07:30:05;69.63;;;34.55;;
17382;SDS011;8809;51.892;8.384;2023-02-12T07:32:53;69.45;;;34.00;;
17382;SDS011;8809;51.892;8.384;2023-02-12T07:36:09;53.45;;;28.83;;
17382;SDS011;8809;51.892;8.384;2023-02-12T07:38:49;64.65;;;33.80;;
17382;SDS011;8809;51.892;8.384;2023-02-12T07:42:00;67.20;;;34.88;;
17382;SDS011;8809;51.892;8.384;2023-02-12T07:44:29;62.03;;;33.00;;
17382;SDS011;8809;51.892;8.384;2023-02-12T07:46:56;59.53;;;32.33;;
17382;SDS011;8809;51.892;8.384;2023-02-12T07:49:24;65.95;;;35.33;;
17382;SDS011;8809;51.892;8.384;2023-02-12T07:51:51;64.70;;;35.35;;
17382;SDS011;8809;51.892;8.384;2023-02-12T07:54:20;63.92;;;32.35;;
17382;SDS011;8809;51.892;8.384;2023-02-12T07:56:47;66.63;;;36.08;;
17382;SDS011;8809;51.892;8.384;2023-02-12T07:59:16;58.33;;;31.92;;
17382;SDS011;8809;51.892;8.384;2023-02-12T08:01:48;63.75;;;35.40;;
17382;SDS011;8809;51.892;8.384;2023-02-12T08:04:29;60.20;;;30.85;;
17382;SDS011;8809;51.892;8.384;2023-02-12T08:06:56;62.55;;;34.85;;
17382;SDS011;8809;51.892;8.384;2023-02-12T08:09:23;62.45;;;34.25;;
17382;SDS011;8809;51.892;8.384;2023-02-12T08:11:59;60.53;;;33.75;;
17382;SDS011;8809;51.892;8.384;2023-02-12T08:14:34;62.20;;;33.30;;
17382;SDS011;8809;51.892;8.384;2023-02-12T08:17:03;66.97;;;34.33;;
17382;SDS011;8809;51.892;8.384;2023-02-12T08:19:29;61.78;;;33.63;;
17382;SDS011;8809;51.892;8.384;2023-02-12T08:21:56;54.30;;;30.55;;
17382;SDS011;8809;51.892;8.384;2023-02-12T08:24:37;60.03;;;33.20;;
17382;SDS011;8809;51.892;8.384;2023-02-12T08:27:06;55.40;;;30.02;;
17382;SDS011;8809;51.892;8.384;2023-02-12T08:29:36;56.08;;;31.83;;
17382;SDS011;8809;51.892;8.384;2023-02-12T08:32:04;48.92;;;27.20;;
17382;SDS011;8809;51.892;8.384;2023-02-12T08:34:34;62.45;;;31.77;;
17382;SDS011;8809;51.892;8.384;2023-02-12T08:37:05;50.20;;;28.55;;
17382;SDS011;8809;51.892;8.384;2023-02-12T08:39:32;55.75;;;30.85;;
17382;SDS011;8809;51.892;8.384;2023-02-12T08:42:00;52.85;;;29.88;;
17382;SDS011;8809;51.892;8.384;2023-02-12T08:44:43;58.03;;;30.85;;
17382;SDS011;8809;51.892;8.384;2023-02-12T08:47:11;54.08;;;29.35;;
17382;SDS011;8809;51.892;8.384;2023-02-12T08:49:38;52.83;;;29.67;;
17382;SDS011;8809;51.892;8.384;2023-02-12T08:52:05;56.15;;;30.55;;
17382;SDS011;8809;51.892;8.384;2023-02-12T08:54:41;55.38;;;30.77;;
17382;SDS011;8809;51.892;8.384;2023-02-12T08:57:16;56.00;;;29.83;;
17382;SDS011;8809;51.892;8.384;2023-02-12T08:59:43;52.33;;;29.60;;
17382;SDS011;8809;51.892;8.384;2023-02-12T09:02:12;52.55;;;28.48;;
17382;SDS011;8809;51.892;8.384;2023-02-12T09:04:39;48.78;;;25.85;;
17382;SDS011;8809;51.892;8.384;2023-02-12T09:10:40;43.67;;;24.33;;
17382;SDS011;8809;51.892;8.384;2023-02-12T09:16:36;31.98;;;18.83;;
17382;SDS011;8809;51.892;8.384;2023-02-12T09:19:45;46.63;;;24.73;;
17382;SDS011;8809;51.892;8.384;2023-02-12T09:26:31;41.72;;;22.90;;
17382;SDS011;8809;51.892;8.384;2023-02-12T09:30:20;37.75;;;21.25;;
17382;SDS011;8809;51.892;8.384;2023-02-12T09:35:32;33.38;;;19.25;;
17382;SDS011;8809;51.892;8.384;2023-02-12T09:38:08;33.03;;;18.55;;
17382;SDS011;8809;51.892;8.384;2023-02-12T09:40:49;32.58;;;18.60;;
17382;SDS011;8809;51.892;8.384;2023-02-12T09:43:38;28.75;;;17.27;;
17382;SDS011;8809;51.892;8.384;2023-02-12T09:46:13;33.03;;;18.52;;
17382;SDS011;8809;51.892;8.384;2023-02-12T09:48:47;26.33;;;15.13;;
17382;SDS011;8809;51.892;8.384;2023-02-12T09:51:26;25.10;;;15.65;;
17382;SDS011;8809;51.892;8.384;2023-02-12T09:53:59;28.83;;;16.85;;
17382;SDS011;8809;51.892;8.384;2023-02-12T09:56:29;24.48;;;14.32;;
17382;SDS011;8809;51.892;8.384;2023-02-12T09:58:58;23.95;;;14.20;;
17382;SDS011;8809;51.892;8.384;2023-02-12T10:05:10;30.95;;;18.63;;
17382;SDS011;8809;51.892;8.384;2023-02-12T10:08:50;35.53;;;19.92;;
17382;SDS011;8809;51.892;8.384;2023-02-12T10:23:27;34.83;;;18.88;;
17382;SDS011;8809;51.892;8.384;2023-02-12T10:34:33;28.20;;;16.33;;
17382;SDS011;8809;51.892;8.384;2023-02-12T10:37:04;28.15;;;15.85;;
17382;SDS011;8809;51.892;8.384;2023-02-12T10:39:42;22.73;;;14.93;;
17382;SDS011;8809;51.892;8.384;2023-02-12T10:42:33;21.95;;;14.52;;
17382;SDS011;8809;51.892;8.384;2023-02-12T10:45:04;22.92;;;14.40;;
17382;SDS011;8809;51.892;8.384;2023-02-12T10:47:36;25.65;;;15.70;;
17382;SDS011;8809;51.892;8.384;2023-02-12T10:50:07;23.25;;;14.00;;
17382;SDS011;8809;51.892;8.384;2023-02-12T10:52:46;22.58;;;14.07;;
17382;SDS011;8809;51.892;8.384;2023-02-12T10:55:38;19.77;;;12.05;;
17382;SDS011;8809;51.892;8.384;2023-02-12T10:58:21;20.52;;;12.07;;
17382;SDS011;8809;51.892;8.384;2023-02-12T11:01:03;17.13;;;10.80;;
17382;SDS011;8809;51.892;8.384;2023-02-12T11:03:45;25.92;;;14.98;;
17382;SDS011;8809;51.892;8.384;2023-02-12T11:06:16;20.45;;;12.48;;
17382;SDS011;8809;51.892;8.384;2023-02-12T11:08:44;22.35;;;13.27;;
17382;SDS011;8809;51.892;8.384;2023-02-12T11:11:13;26.13;;;15.60;;
17382;SDS011;8809;51.892;8.384;2023-02-12T11:13:52;21.00;;;14.57;;
17382;SDS011;8809;51.892;8.384;2023-02-12T11:16:31;17.67;;;11.98;;
17382;SDS011;8809;51.892;8.384;2023-02-12T11:22:03;16.52;;;9.82;;
17382;SDS011;8809;51.892;8.384;2023-02-12T11:24:47;15.85;;;9.45;;
17382;SDS011;8809;51.892;8.384;2023-02-12T11:27:42;12.35;;;8.15;;
17382;SDS011;8809;51.892;8.384;2023-02-12T11:30:15;14.93;;;9.57;;
17382;SDS011;8809;51.892;8.384;2023-02-12T11:32:46;16.63;;;10.32;;
17382;SDS011;8809;51.892;8.384;2023-02-12T11:35:23;13.10;;;8.45;;
17382;SDS011;8809;51.892;8.384;2023-02-12T11:37:56;15.10;;;9.85;;
17382;SDS011;8809;51.892;8.384;2023-02-12T11:40:34;16.90;;;10.27;;
17382;SDS011;8809;51.892;8.384;2023-02-12T11:43:05;18.20;;;9.52;;
17382;SDS011;8809;51.892;8.384;2023-02-12T11:45:35;13.02;;;8.07;;
17382;SDS011;8809;51.892;8.384;2023-02-12T11:48:15;12.02;;;7.78;;
17382;SDS011;8809;51.892;8.384;2023-02-12T11:51:03;11.93;;;7.80;;
17382;SDS011;8809;51.892;8.384;2023-02-12T11:53:35;15.27;;;9.57;;
17382;SDS011;8809;51.892;8.384;2023-02-12T11:56:06;12.70;;;8.23;;
17382;SDS011;8809;51.892;8.384;2023-02-12T11:58:44;11.60;;;7.25;;
17382;SDS011;8809;51.892;8.384;2023-02-12T12:01:13;11.35;;;8.00;;
17382;SDS011;8809;51.892;8.384;2023-02-12T12:18:36;11.68;;;7.53;;
17382;SDS011;8809;51.892;8.384;2023-02-12T12:24:36;9.88;;;6.15;;
17382;SDS011;8809;51.892;8.384;2023-02-12T12:27:14;9.60;;;6.57;;
17382;SDS011;8809;51.892;8.384;2023-02-12T12:30:10;8.20;;;5.85;;
17382;SDS011;8809;51.892;8.384;2023-02-12T12:32:47;9.32;;;6.00;;
17382;SDS011;8809;51.892;8.384;2023-02-12T12:35:32;8.68;;;5.78;;
17382;SDS011;8809;51.892;8.384;2023-02-12T12:38:08;9.65;;;6.07;;
17382;SDS011;8809;51.892;8.384;2023-02-12T12:40:50;8.13;;;5.82;;
17382;SDS011;8809;51.892;8.384;2023-02-12T12:43:34;9.07;;;5.07;;
17382;SDS011;8809;51.892;8.384;2023-02-12T12:58:21;8.40;;;4.93;;
17382;SDS011;8809;51.892;8.384;2023-02-12T13:00:59;8.18;;;5.40;;
17382;SDS011;8809;51.892;8.384;2023-02-12T13:03:50;7.47;;;4.68;;
17382;SDS011;8809;51.892;8.384;2023-02-12T13:06:50;5.72;;;4.20;;
17382;SDS011;8809;51.892;8.384;2023-02-12T13:09:45;7.95;;;4.47;;
17382;SDS011;8809;51.892;8.384;2023-02-12T13:12:54;6.82;;;4.90;;
17382;SDS011;8809;51.892;8.384;2023-02-12T13:15:42;7.05;;;4.72;;
17382;SDS011;8809;51.892;8.384;2023-02-12T13:18:38;6.38;;;4.68;;
17382;SDS011;8809;51.892;8.384;2023-02-12T13:21:30;6.32;;;4.28;;
17382;SDS011;8809;51.892;8.384;2023-02-12T13:24:28;6.13;;;4.00;;
17382;SDS011;8809;51.892;8.384;2023-02-12T13:27:03;5.82;;;3.50;;
17382;SDS011;8809;51.892;8.384;2023-02-12T13:29:47;5.03;;;3.80;;
17382;SDS011;8809;51.892;8.384;2023-02-12T13:32:36;5.95;;;4.07;;
17382;SDS011;8809;51.892;8.384;2023-02-12T13:35:19;6.75;;;3.90;;
17382;SDS011;8809;51.892;8.384;2023-02-12T13:37:49;6.72;;;3.92;;
17382;SDS011;8809;51.892;8.384;2023-02-12T13:40:38;4.97;;;3.95;;
17382;SDS011;8809;51.892;8.384;2023-02-12T13:43:21;5.43;;;4.25;;
17382;SDS011;8809;51.892;8.384;2023-02-12T13:46:07;6.10;;;4.00;;
17382;SDS011;8809;51.892;8.384;2023-02-12T13:48:57;5.32;;;3.60;;
17382;SDS011;8809;51.892;8.384;2023-02-12T13:51:32;4.40;;;3.33;;
17382;SDS011;8809;51.892;8.384;2023-02-12T13:54:27;4.60;;;3.47;;
17382;SDS011;8809;51.892;8.384;2023-02-12T13:57:40;4.68;;;3.38;;
17382;SDS011;8809;51.892;8.384;2023-02-12T14:00:14;4.72;;;3.05;;
17382;SDS011;8809;51.892;8.384;2023-02-12T14:03:21;4.45;;;3.40;;
17382;SDS011;8809;51.892;8.384;2023-02-12T14:06:08;4.47;;;3.40;;
17382;SDS011;8809;51.892;8.384;2023-02-12T14:08:43;6.82;;;3.35;;
17382;SDS011;8809;51.892;8.384;2023-02-12T14:11:45;4.95;;;3.60;;
17382;SDS011;8809;51.892;8.384;2023-02-12T14:14:33;4.35;;;3.38;;
17382;SDS011;8809;51.892;8.384;2023-02-12T14:20:18;6.18;;;4.30;;
17382;SDS011;8809;51.892;8.384;2023-02-12T14:26:06;6.05;;;4.88;;
17382;SDS011;8809;51.892;8.384;2023-02-12T14:28:47;6.68;;;4.45;;
17382;SDS011;8809;51.892;8.384;2023-02-12T14:37:37;4.53;;;2.92;;
17382;SDS011;8809;51.892;8.384;2023-02-12T14:43:32;4.80;;;3.67;;
17382;SDS011;8809;51.892;8.384;2023-02-12T14:49:22;5.28;;;3.10;;
17382;SDS011;8809;51.892;8.384;2023-02-12T14:51:53;5.88;;;4.20;;
17382;SDS011;8809;51.892;8.384;2023-02-12T14:54:33;4.38;;;3.58;;
17382;SDS011;8809;51.892;8.384;2023-02-12T14:57:21;6.55;;;4.47;;
17382;SDS011;8809;51.892;8.384;2023-02-12T15:00:22;5.18;;;3.60;;
17382;SDS011;8809;51.892;8.384;2023-02-12T15:03:18;3.95;;;3.22;;
17382;SDS011;8809;51.892;8.384;2023-02-12T15:08:45;5.28;;;3.80;;
17382;SDS011;8809;51.892;8.384;2023-02-12T15:11:33;3.90;;;3.08;;
17382;SDS011;8809;51.892;8.384;2023-02-12T15:17:08;8.48;;;5.68;;
17382;SDS011;8809;51.892;8.384;2023-02-12T15:20:26;5.10;;;3.92;;
17382;SDS011;8809;51.892;8.384;2023-02-12T15:23:33;5.20;;;3.55;;
17382;SDS011;8809;51.892;8.384;2023-02-12T15:26:19;6.07;;;4.10;;
17382;SDS011;8809;51.892;8.384;2023-02-12T15:29:52;6.32;;;4.53;;
17382;SDS011;8809;51.892;8.384;2023-02-12T15:31:56;4.53;;;3.85;;
17382;SDS011;8809;51.892;8.384;2023-02-12T15:34:35;7.10;;;3.88;;
17382;SDS011;8809;51.892;8.384;2023-02-12T15:40:12;3.92;;;2.83;;
17382;SDS011;8809;51.892;8.384;2023-02-12T15:42:50;3.92;;;3.17;;
17382;SDS011;8809;51.892;8.384;2023-02-12T15:45:29;4.68;;;3.80;;
17382;SDS011;8809;51.892;8.384;2023-02-12T15:48:09;5.30;;;3.63;;
17382;SDS011;8809;51.892;8.384;2023-02-12T15:50:47;3.15;;;2.67;;
17382;SDS011;8809;51.892;8.384;2023-02-12T15:53:19;4.63;;;3.22;;
17382;SDS011;8809;51.892;8.384;2023-02-12T15:56:09;5.95;;;3.08;;
17382;SDS011;8809;51.892;8.384;2023-02-12T15:59:05;4.38;;;2.88;;
17382;SDS011;8809;51.892;8.384;2023-02-12T16:01:59;4.18;;;3.20;;
17382;SDS011;8809;51.892;8.384;2023-02-12T16:04:32;4.43;;;3.10;;
17382;SDS011;8809;51.892;8.384;2023-02-12T16:07:05;4.60;;;2.80;;
17382;SDS011;8809;51.892;8.384;2023-02-12T16:13:15;3.63;;;2.97;;
17382;SDS011;8809;51.892;8.384;2023-02-12T16:19:06;5.38;;;3.50;;
17382;SDS011;8809;51.892;8.384;2023-02-12T16:21:43;4.80;;;3.40;;
17382;SDS011;8809;51.892;8.384;2023-02-12T16:24:29;4.13;;;2.63;;
17382;SDS011;8809;51.892;8.384;2023-02-12T16:27:15;5.13;;;3.33;;
17382;SDS011;8809;51.892;8.384;2023-02-12T16:29:53;3.88;;;2.80;;
17382;SDS011;8809;51.892;8.384;2023-02-12T16:32:40;4.18;;;3.05;;
17382;SDS011;8809;51.892;8.384;2023-02-12T16:38:36;2.95;;;2.25;;
17382;SDS011;8809;51.892;8.384;2023-02-12T16:41:49;2.13;;;1.83;;
17382;SDS011;8809;51.892;8.384;2023-02-12T16:44:24;2.80;;;2.17;;
17382;SDS011;8809;51.892;8.384;2023-02-12T16:46:59;2.60;;;2.15;;
17382;SDS011;8809;51.892;8.384;2023-02-12T16:49:38;2.30;;;1.85;;
17382;SDS011;8809;51.892;8.384;2023-02-12T16:52:24;2.55;;;2.05;;
17382;SDS011;8809;51.892;8.384;2023-02-12T16:54:59;2.38;;;1.90;;
17382;SDS011;8809;51.892;8.384;2023-02-12T16:57:27;2.83;;;2.30;;
17382;SDS011;8809;51.892;8.384;2023-02-12T17:00:00;2.38;;;1.63;;
17382;SDS011;8809;51.892;8.384;2023-02-12T17:02:55;2.50;;;1.90;;
17382;SDS011;8809;51.892;8.384;2023-02-12T17:05:38;4.13;;;3.00;;
17382;SDS011;8809;51.892;8.384;2023-02-12T17:08:29;3.60;;;2.38;;
17382;SDS011;8809;51.892;8.384;2023-02-12T17:11:05;3.15;;;2.38;;
17382;SDS011;8809;51.892;8.384;2023-02-12T17:13:36;2.80;;;2.17;;
17382;SDS011;8809;51.892;8.384;2023-02-12T17:16:07;3.00;;;2.42;;
17382;SDS011;8809;51.892;8.384;2023-02-12T17:18:36;2.67;;;2.20;;
17382;SDS011;8809;51.892;8.384;2023-02-12T17:21:09;2.30;;;2.10;;
17382;SDS011;8809;51.892;8.384;2023-02-12T17:23:51;2.58;;;2.10;;
17382;SDS011;8809;51.892;8.384;2023-02-12T17:26:21;2.90;;;2.15;;
17382;SDS011;8809;51.892;8.384;2023-02-12T17:28:57;3.97;;;2.42;;
17382;SDS011;8809;51.892;8.384;2023-02-12T17:34:36;3.00;;;2.58;;
17382;SDS011;8809;51.892;8.384;2023-02-12T17:37:08;4.93;;;3.13;;
17382;SDS011;8809;51.892;8.384;2023-02-12T17:50:35;3.38;;;2.80;;
17382;SDS011;8809;51.892;8.384;2023-02-12T18:00:28;3.75;;;2.70;;
17382;SDS011;8809;51.892;8.384;2023-02-12T18:04:59;4.63;;;3.00;;
17382;SDS011;8809;51.892;8.384;2023-02-12T18:27:03;4.32;;;3.58;;
17382;SDS011;8809;51.892;8.384;2023-02-12T18:30:28;4.57;;;3.88;;
17382;SDS011;8809;51.892;8.384;2023-02-12T18:32:58;4.32;;;3.60;;
17382;SDS011;8809;51.892;8.384;2023-02-12T18:39:24;4.15;;;3.42;;